Terminal Aerodrome Forecast
Issued by NWS

Home | Current Version | Previous Version | Text Only | Print | Product List | Glossary On
Versions: 1 2 3 4 5 6 7 8 9 10 11 12 13
928
FTUS45 KABQ 300539
TAFGUP
TAF
KGUP 300539Z 3006/3106 12009KT P6SM FEW120
     FM300800 08004KT P6SM SCT200
     FM301700 21010KT P6SM SCT100 SCT200
     FM302000 19012G17KT P6SM VCTS BKN090CB
     FM310000 14009KT P6SM BKN080=

USA.gov is the U.S. government's official web portal to all federal, state and local government web resources and services.